sensor_id;sensor_type;location;lat;lon;timestamp;P1;durP1;ratioP1;P2;durP2;ratioP2
77821;SDS011;67012;53.712;10.728;2023-04-15T07:59:56;64.50;;;25.98;;
77821;SDS011;67012;53.712;10.728;2023-04-15T08:02:21;58.37;;;23.83;;
77821;SDS011;67012;53.712;10.728;2023-04-15T08:04:46;61.27;;;25.57;;
77821;SDS011;67012;53.712;10.728;2023-04-15T08:07:12;57.05;;;22.50;;
77821;SDS011;67012;53.712;10.728;2023-04-15T08:09:37;55.40;;;23.17;;
77821;SDS011;67012;53.712;10.728;2023-04-15T08:12:03;56.53;;;23.97;;
77821;SDS011;67012;53.712;10.728;2023-04-15T08:14:28;52.08;;;22.15;;
77821;SDS011;67012;53.712;10.728;2023-04-15T08:16:53;56.65;;;21.35;;
77821;SDS011;67012;53.712;10.728;2023-04-15T08:19:18;53.20;;;21.17;;
77821;SDS011;67012;53.712;10.728;2023-04-15T08:21:44;49.05;;;20.80;;
77821;SDS011;67012;53.712;10.728;2023-04-15T08:24:09;49.83;;;21.73;;
77821;SDS011;67012;53.712;10.728;2023-04-15T08:26:35;50.38;;;22.15;;
77821;SDS011;67012;53.712;10.728;2023-04-15T08:29:00;48.97;;;20.38;;
77821;SDS011;67012;53.712;10.728;2023-04-15T08:31:26;45.60;;;21.38;;
77821;SDS011;67012;53.712;10.728;2023-04-15T08:33:53;45.28;;;20.30;;
77821;SDS011;67012;53.712;10.728;2023-04-15T08:36:20;45.55;;;21.20;;
77821;SDS011;67012;53.712;10.728;2023-04-15T08:38:46;47.63;;;19.73;;
77821;SDS011;67012;53.712;10.728;2023-04-15T08:41:15;45.20;;;18.95;;
77821;SDS011;67012;53.712;10.728;2023-04-15T08:43:45;42.08;;;20.52;;
77821;SDS011;67012;53.712;10.728;2023-04-15T08:46:13;44.90;;;20.65;;
77821;SDS011;67012;53.712;10.728;2023-04-15T08:48:39;44.92;;;19.67;;
77821;SDS011;67012;53.712;10.728;2023-04-15T08:51:05;43.20;;;20.13;;
77821;SDS011;67012;53.712;10.728;2023-04-15T08:53:30;45.03;;;19.42;;
77821;SDS011;67012;53.712;10.728;2023-04-15T08:55:56;41.40;;;19.70;;
77821;SDS011;67012;53.712;10.728;2023-04-15T08:58:21;42.63;;;18.73;;
77821;SDS011;67012;53.712;10.728;2023-04-15T09:00:48;38.70;;;17.75;;
77821;SDS011;67012;53.712;10.728;2023-04-15T09:03:13;41.43;;;18.60;;
77821;SDS011;67012;53.712;10.728;2023-04-15T09:05:38;40.77;;;18.43;;
77821;SDS011;67012;53.712;10.728;2023-04-15T09:08:04;44.07;;;19.17;;
77821;SDS011;67012;53.712;10.728;2023-04-15T09:10:29;38.22;;;18.08;;
77821;SDS011;67012;53.712;10.728;2023-04-15T09:12:55;42.08;;;18.92;;
77821;SDS011;67012;53.712;10.728;2023-04-15T09:15:20;49.22;;;20.60;;
77821;SDS011;67012;53.712;10.728;2023-04-15T09:17:46;38.10;;;18.83;;
77821;SDS011;67012;53.712;10.728;2023-04-15T09:20:13;41.03;;;18.00;;
77821;SDS011;67012;53.712;10.728;2023-04-15T09:22:39;37.83;;;17.95;;
77821;SDS011;67012;53.712;10.728;2023-04-15T09:25:26;36.22;;;18.40;;
77821;SDS011;67012;53.712;10.728;2023-04-15T09:27:52;39.42;;;17.63;;
77821;SDS011;67012;53.712;10.728;2023-04-15T09:30:17;33.15;;;16.67;;
77821;SDS011;67012;53.712;10.728;2023-04-15T09:32:56;38.75;;;18.98;;
77821;SDS011;67012;53.712;10.728;2023-04-15T09:35:21;38.25;;;17.42;;
77821;SDS011;67012;53.712;10.728;2023-04-15T09:37:50;36.67;;;16.80;;
77821;SDS011;67012;53.712;10.728;2023-04-15T09:43:10;39.05;;;18.52;;
77821;SDS011;67012;53.712;10.728;2023-04-15T09:45:38;35.17;;;18.15;;
77821;SDS011;67012;53.712;10.728;2023-04-15T09:48:14;35.63;;;17.90;;
77821;SDS011;67012;53.712;10.728;2023-04-15T09:50:40;34.88;;;16.80;;
77821;SDS011;67012;53.712;10.728;2023-04-15T09:53:07;35.50;;;16.77;;
77821;SDS011;67012;53.712;10.728;2023-04-15T09:55:33;35.67;;;18.85;;
77821;SDS011;67012;53.712;10.728;2023-04-15T09:57:58;37.13;;;18.52;;
77821;SDS011;67012;53.712;10.728;2023-04-15T10:00:23;34.73;;;17.93;;
77821;SDS011;67012;53.712;10.728;2023-04-15T10:02:48;34.17;;;16.83;;
77821;SDS011;67012;53.712;10.728;2023-04-15T10:05:14;32.90;;;17.10;;
77821;SDS011;67012;53.712;10.728;2023-04-15T10:07:41;31.90;;;16.30;;
77821;SDS011;67012;53.712;10.728;2023-04-15T10:10:06;33.85;;;17.70;;
77821;SDS011;67012;53.712;10.728;2023-04-15T10:12:33;30.00;;;17.67;;
77821;SDS011;67012;53.712;10.728;2023-04-15T10:15:03;33.25;;;15.93;;
77821;SDS011;67012;53.712;10.728;2023-04-15T10:17:29;30.30;;;17.02;;
77821;SDS011;67012;53.712;10.728;2023-04-15T10:19:57;32.55;;;17.60;;
77821;SDS011;67012;53.712;10.728;2023-04-15T10:22:24;30.52;;;18.13;;
77821;SDS011;67012;53.712;10.728;2023-04-15T10:24:51;28.77;;;16.35;;
77821;SDS011;67012;53.712;10.728;2023-04-15T10:27:16;29.35;;;15.93;;
77821;SDS011;67012;53.712;10.728;2023-04-15T10:29:42;27.88;;;16.63;;
77821;SDS011;67012;53.712;10.728;2023-04-15T10:32:07;30.00;;;16.95;;
77821;SDS011;67012;53.712;10.728;2023-04-15T10:34:33;29.75;;;17.33;;
77821;SDS011;67012;53.712;10.728;2023-04-15T10:37:02;26.70;;;16.05;;
77821;SDS011;67012;53.712;10.728;2023-04-15T10:44:23;28.23;;;16.10;;
77821;SDS011;67012;53.712;10.728;2023-04-15T10:46:50;25.80;;;15.50;;
77821;SDS011;67012;53.712;10.728;2023-04-15T10:49:16;28.63;;;15.65;;
77821;SDS011;67012;53.712;10.728;2023-04-15T10:51:42;21.38;;;14.00;;
77821;SDS011;67012;53.712;10.728;2023-04-15T10:54:15;23.67;;;14.65;;
77821;SDS011;67012;53.712;10.728;2023-04-15T10:56:44;22.55;;;13.88;;
77821;SDS011;67012;53.712;10.728;2023-04-15T10:59:09;26.05;;;14.98;;
77821;SDS011;67012;53.712;10.728;2023-04-15T11:01:54;21.50;;;13.82;;
77821;SDS011;67012;53.712;10.728;2023-04-15T11:07:07;22.52;;;13.77;;
77821;SDS011;67012;53.712;10.728;2023-04-15T11:09:32;19.67;;;13.27;;
77821;SDS011;67012;53.712;10.728;2023-04-15T11:12:07;24.15;;;13.45;;
77821;SDS011;67012;53.712;10.728;2023-04-15T11:14:33;23.30;;;14.35;;
77821;SDS011;67012;53.712;10.728;2023-04-15T11:17:01;20.95;;;14.98;;
77821;SDS011;67012;53.712;10.728;2023-04-15T11:19:34;22.48;;;13.93;;
77821;SDS011;67012;53.712;10.728;2023-04-15T11:22:05;19.08;;;14.00;;
77821;SDS011;67012;53.712;10.728;2023-04-15T11:24:31;21.88;;;14.23;;
77821;SDS011;67012;53.712;10.728;2023-04-15T11:26:56;23.03;;;15.07;;
77821;SDS011;67012;53.712;10.728;2023-04-15T11:29:27;20.98;;;14.23;;
77821;SDS011;67012;53.712;10.728;2023-04-15T11:31:52;26.73;;;15.13;;
77821;SDS011;67012;53.712;10.728;2023-04-15T11:34:21;24.43;;;15.40;;
77821;SDS011;67012;53.712;10.728;2023-04-15T11:36:46;23.27;;;15.10;;
77821;SDS011;67012;53.712;10.728;2023-04-15T11:39:12;26.35;;;15.02;;
77821;SDS011;67012;53.712;10.728;2023-04-15T11:41:37;21.23;;;14.43;;
77821;SDS011;67012;53.712;10.728;2023-04-15T11:44:14;20.95;;;14.82;;
77821;SDS011;67012;53.712;10.728;2023-04-15T11:46:40;20.95;;;13.88;;
77821;SDS011;67012;53.712;10.728;2023-04-15T11:49:05;24.83;;;13.77;;
77821;SDS011;67012;53.712;10.728;2023-04-15T11:51:31;22.83;;;15.00;;
77821;SDS011;67012;53.712;10.728;2023-04-15T11:53:56;24.35;;;14.00;;
77821;SDS011;67012;53.712;10.728;2023-04-15T11:56:23;23.05;;;14.05;;
77821;SDS011;67012;53.712;10.728;2023-04-15T11:58:52;20.48;;;12.82;;
77821;SDS011;67012;53.712;10.728;2023-04-15T12:01:17;19.35;;;13.60;;
77821;SDS011;67012;53.712;10.728;2023-04-15T12:03:44;18.73;;;12.52;;
77821;SDS011;67012;53.712;10.728;2023-04-15T12:06:14;18.80;;;12.63;;
77821;SDS011;67012;53.712;10.728;2023-04-15T12:11:40;18.65;;;13.13;;
77821;SDS011;67012;53.712;10.728;2023-04-15T12:14:19;22.77;;;13.82;;
77821;SDS011;67012;53.712;10.728;2023-04-15T12:16:47;18.02;;;13.45;;
77821;SDS011;67012;53.712;10.728;2023-04-15T12:19:17;19.73;;;13.50;;
77821;SDS011;67012;53.712;10.728;2023-04-15T12:21:43;21.80;;;13.93;;
77821;SDS011;67012;53.712;10.728;2023-04-15T12:24:10;25.60;;;16.75;;
77821;SDS011;67012;53.712;10.728;2023-04-15T12:26:36;24.35;;;14.50;;
77821;SDS011;67012;53.712;10.728;2023-04-15T12:29:06;22.30;;;14.73;;
77821;SDS011;67012;53.712;10.728;2023-04-15T12:31:32;20.00;;;13.10;;
77821;SDS011;67012;53.712;10.728;2023-04-15T12:33:58;29.77;;;17.25;;
77821;SDS011;67012;53.712;10.728;2023-04-15T12:36:24;29.75;;;16.70;;
77821;SDS011;67012;53.712;10.728;2023-04-15T12:38:50;24.92;;;15.45;;
77821;SDS011;67012;53.712;10.728;2023-04-15T12:41:15;30.80;;;18.42;;
77821;SDS011;67012;53.712;10.728;2023-04-15T12:43:40;32.88;;;17.10;;
77821;SDS011;67012;53.712;10.728;2023-04-15T12:46:06;27.75;;;15.95;;
77821;SDS011;67012;53.712;10.728;2023-04-15T12:48:32;24.38;;;14.20;;
77821;SDS011;67012;53.712;10.728;2023-04-15T12:50:57;34.80;;;18.47;;
77821;SDS011;67012;53.712;10.728;2023-04-15T12:53:22;22.80;;;14.57;;
77821;SDS011;67012;53.712;10.728;2023-04-15T12:55:47;21.87;;;14.90;;
77821;SDS011;67012;53.712;10.728;2023-04-15T12:58:13;20.70;;;15.07;;
77821;SDS011;67012;53.712;10.728;2023-04-15T13:00:38;18.93;;;14.07;;
77821;SDS011;67012;53.712;10.728;2023-04-15T13:03:03;23.17;;;15.20;;
77821;SDS011;67012;53.712;10.728;2023-04-15T13:05:28;22.77;;;13.97;;
77821;SDS011;67012;53.712;10.728;2023-04-15T13:07:53;33.40;;;17.57;;
77821;SDS011;67012;53.712;10.728;2023-04-15T13:10:18;20.70;;;14.10;;
77821;SDS011;67012;53.712;10.728;2023-04-15T13:12:44;20.73;;;14.85;;
77821;SDS011;67012;53.712;10.728;2023-04-15T13:15:11;25.90;;;15.88;;
77821;SDS011;67012;53.712;10.728;2023-04-15T13:17:37;21.33;;;15.00;;
77821;SDS011;67012;53.712;10.728;2023-04-15T13:20:02;21.83;;;14.85;;
77821;SDS011;67012;53.712;10.728;2023-04-15T13:22:27;23.20;;;15.52;;
77821;SDS011;67012;53.712;10.728;2023-04-15T13:24:52;20.97;;;15.50;;
77821;SDS011;67012;53.712;10.728;2023-04-15T13:27:17;22.80;;;14.43;;
77821;SDS011;67012;53.712;10.728;2023-04-15T13:29:43;25.47;;;15.93;;
77821;SDS011;67012;53.712;10.728;2023-04-15T13:32:08;23.43;;;14.43;;
77821;SDS011;67012;53.712;10.728;2023-04-15T13:34:33;24.30;;;15.07;;
77821;SDS011;67012;53.712;10.728;2023-04-15T13:36:58;23.60;;;14.83;;
77821;SDS011;67012;53.712;10.728;2023-04-15T13:39:30;22.58;;;14.35;;
77821;SDS011;67012;53.712;10.728;2023-04-15T13:41:55;20.80;;;15.20;;
77821;SDS011;67012;53.712;10.728;2023-04-15T13:44:20;22.33;;;14.73;;
77821;SDS011;67012;53.712;10.728;2023-04-15T13:46:45;19.47;;;14.33;;
77821;SDS011;67012;53.712;10.728;2023-04-15T13:49:10;22.87;;;14.03;;
77821;SDS011;67012;53.712;10.728;2023-04-15T13:51:35;21.13;;;13.37;;
77821;SDS011;67012;53.712;10.728;2023-04-15T13:54:01;18.70;;;13.87;;
77821;SDS011;67012;53.712;10.728;2023-04-15T13:56:26;20.67;;;14.13;;
77821;SDS011;67012;53.712;10.728;2023-04-15T13:58:51;19.47;;;13.90;;
77821;SDS011;67012;53.712;10.728;2023-04-15T14:01:16;20.98;;;13.38;;
77821;SDS011;67012;53.712;10.728;2023-04-15T14:03:42;18.33;;;11.63;;
77821;SDS011;67012;53.712;10.728;2023-04-15T14:06:07;16.10;;;11.60;;
77821;SDS011;67012;53.712;10.728;2023-04-15T14:08:32;18.50;;;11.67;;
77821;SDS011;67012;53.712;10.728;2023-04-15T14:10:57;16.73;;;12.10;;
77821;SDS011;67012;53.712;10.728;2023-04-15T14:13:23;19.47;;;11.93;;
77821;SDS011;67012;53.712;10.728;2023-04-15T14:15:48;14.90;;;11.73;;
77821;SDS011;67012;53.712;10.728;2023-04-15T14:18:13;16.77;;;11.67;;
77821;SDS011;67012;53.712;10.728;2023-04-15T14:20:38;18.83;;;12.40;;
77821;SDS011;67012;53.712;10.728;2023-04-15T14:23:04;17.17;;;10.90;;
77821;SDS011;67012;53.712;10.728;2023-04-15T14:25:29;17.50;;;12.43;;
77821;SDS011;67012;53.712;10.728;2023-04-15T14:27:54;15.67;;;11.10;;
77821;SDS011;67012;53.712;10.728;2023-04-15T14:30:19;18.97;;;12.53;;
77821;SDS011;67012;53.712;10.728;2023-04-15T14:32:45;21.05;;;12.30;;
77821;SDS011;67012;53.712;10.728;2023-04-15T14:35:10;19.60;;;13.50;;
77821;SDS011;67012;53.712;10.728;2023-04-15T14:37:35;20.23;;;12.80;;
77821;SDS011;67012;53.712;10.728;2023-04-15T14:40:00;17.67;;;12.30;;
77821;SDS011;67012;53.712;10.728;2023-04-15T14:42:25;19.97;;;12.63;;
77821;SDS011;67012;53.712;10.728;2023-04-15T14:44:51;20.97;;;12.70;;
77821;SDS011;67012;53.712;10.728;2023-04-15T14:47:16;24.70;;;14.83;;
77821;SDS011;67012;53.712;10.728;2023-04-15T14:49:41;17.80;;;12.73;;
77821;SDS011;67012;53.712;10.728;2023-04-15T14:52:06;18.83;;;13.07;;
77821;SDS011;67012;53.712;10.728;2023-04-15T14:54:31;18.10;;;12.73;;
77821;SDS011;67012;53.712;10.728;2023-04-15T14:56:57;22.20;;;12.90;;
77821;SDS011;67012;53.712;10.728;2023-04-15T14:59:22;20.53;;;12.87;;
77821;SDS011;67012;53.712;10.728;2023-04-15T15:01:47;19.77;;;13.17;;
77821;SDS011;67012;53.712;10.728;2023-04-15T15:04:12;17.57;;;10.00;;
77821;SDS011;67012;53.712;10.728;2023-04-15T15:06:38;15.97;;;11.27;;
77821;SDS011;67012;53.712;10.728;2023-04-15T15:09:03;20.30;;;12.18;;
77821;SDS011;67012;53.712;10.728;2023-04-15T15:11:28;20.03;;;13.67;;
77821;SDS011;67012;53.712;10.728;2023-04-15T15:13:54;17.52;;;11.98;;
77821;SDS011;67012;53.712;10.728;2023-04-15T15:16:20;22.02;;;13.88;;
77821;SDS011;67012;53.712;10.728;2023-04-15T15:18:45;18.73;;;13.68;;
77821;SDS011;67012;53.712;10.728;2023-04-15T15:21:11;26.80;;;12.50;;
77821;SDS011;67012;53.712;10.728;2023-04-15T15:23:36;19.50;;;13.80;;
77821;SDS011;67012;53.712;10.728;2023-04-15T15:26:02;19.87;;;13.30;;
77821;SDS011;67012;53.712;10.728;2023-04-15T15:28:27;19.63;;;14.00;;
77821;SDS011;67012;53.712;10.728;2023-04-15T15:30:52;19.37;;;14.13;;
77821;SDS011;67012;53.712;10.728;2023-04-15T15:33:17;21.63;;;14.03;;
77821;SDS011;67012;53.712;10.728;2023-04-15T15:35:42;23.63;;;14.37;;
77821;SDS011;67012;53.712;10.728;2023-04-15T15:38:09;21.55;;;13.93;;
77821;SDS011;67012;53.712;10.728;2023-04-15T15:40:35;21.10;;;12.98;;
77821;SDS011;67012;53.712;10.728;2023-04-15T15:43:00;23.80;;;15.57;;
77821;SDS011;67012;53.712;10.728;2023-04-15T15:45:26;21.57;;;14.43;;
77821;SDS011;67012;53.712;10.728;2023-04-15T15:47:51;22.60;;;14.98;;
77821;SDS011;67012;53.712;10.728;2023-04-15T15:50:16;22.77;;;14.23;;
77821;SDS011;67012;53.712;10.728;2023-04-15T15:52:41;25.33;;;14.50;;
77821;SDS011;67012;53.712;10.728;2023-04-15T15:55:07;19.87;;;13.77;;
77821;SDS011;67012;53.712;10.728;2023-04-15T15:57:32;24.60;;;14.52;;
77821;SDS011;67012;53.712;10.728;2023-04-15T15:59:57;25.27;;;14.33;;
77821;SDS011;67012;53.712;10.728;2023-04-15T16:02:22;21.47;;;14.07;;
77821;SDS011;67012;53.712;10.728;2023-04-15T16:04:48;22.00;;;14.63;;
77821;SDS011;67012;53.712;10.728;2023-04-15T16:07:15;24.65;;;15.38;;
77821;SDS011;67012;53.712;10.728;2023-04-15T16:09:40;24.27;;;13.70;;
77821;SDS011;67012;53.712;10.728;2023-04-15T16:12:06;23.30;;;13.82;;
77821;SDS011;67012;53.712;10.728;2023-04-15T16:14:32;23.38;;;14.63;;
77821;SDS011;67012;53.712;10.728;2023-04-15T16:16:57;28.40;;;16.42;;
77821;SDS011;67012;53.712;10.728;2023-04-15T16:19:22;19.57;;;13.63;;
77821;SDS011;67012;53.712;10.728;2023-04-15T16:21:47;26.60;;;14.17;;
77821;SDS011;67012;53.712;10.728;2023-04-15T16:24:12;22.10;;;13.77;;
77821;SDS011;67012;53.712;10.728;2023-04-15T16:26:39;17.13;;;13.07;;
77821;SDS011;67012;53.712;10.728;2023-04-15T16:29:04;19.52;;;13.07;;
77821;SDS011;67012;53.712;10.728;2023-04-15T16:31:30;22.23;;;13.93;;
77821;SDS011;67012;53.712;10.728;2023-04-15T16:33:56;18.97;;;12.93;;
77821;SDS011;67012;53.712;10.728;2023-04-15T16:36:21;25.27;;;14.52;;
77821;SDS011;67012;53.712;10.728;2023-04-15T16:38:46;26.30;;;15.97;;
77821;SDS011;67012;53.712;10.728;2023-04-15T16:41:13;19.83;;;13.10;;
77821;SDS011;67012;53.712;10.728;2023-04-15T16:43:38;22.88;;;13.23;;
77821;SDS011;67012;53.712;10.728;2023-04-15T16:46:03;20.57;;;13.47;;
77821;SDS011;67012;53.712;10.728;2023-04-15T16:48:29;22.92;;;13.52;;
77821;SDS011;67012;53.712;10.728;2023-04-15T16:50:54;24.95;;;13.30;;
77821;SDS011;67012;53.712;10.728;2023-04-15T16:53:20;21.73;;;13.35;;
77821;SDS011;67012;53.712;10.728;2023-04-15T16:55:46;20.85;;;12.52;;
77821;SDS011;67012;53.712;10.728;2023-04-15T16:58:11;19.53;;;13.00;;
77821;SDS011;67012;53.712;10.728;2023-04-15T17:00:36;28.23;;;14.07;;
77821;SDS011;67012;53.712;10.728;2023-04-15T17:03:04;24.42;;;13.77;;
77821;SDS011;67012;53.712;10.728;2023-04-15T17:05:29;19.48;;;11.88;;
77821;SDS011;67012;53.712;10.728;2023-04-15T17:07:55;20.08;;;12.30;;
77821;SDS011;67012;53.712;10.728;2023-04-15T17:10:20;21.20;;;13.32;;
